.
WxDataArchive / Data Records for 2010-06-24
2010-06-23 June 2010 2010-06-25

Data Records for Thursday, 24 June 2010

Time	Temp	Chill	HIndex	Humid	Dewpt	 Wind 	HiWind	WindDir	Rain 	Barom 
-----	----	-----	------	-----	-----	------	------	-------	-----	----- 
00:00	67.4	67.4	67.4	95	65.9	0	3	270	0.00	29.925 
00:05	67.3	67.3	67.3	95	65.8	1	4	270	0.00	29.925 
00:10	67.3	67.3	67.3	95	65.8	1	5	248	0.00	29.925 
00:15	67.4	67.4	67.4	95	65.9	1	3	270	0.00	29.898 
00:20	67.4	67.4	67.4	95	65.9	0	2	248	0.00	29.898 
00:25	67.4	67.4	67.4	95	65.9	1	3	270	0.00	29.898 
00:30	67.4	67.4	67.4	95	65.9	1	4	270	0.00	29.881 
00:35	67.4	67.4	67.4	95	65.9	2	5	292	0.00	29.881 
00:40	67.4	67.4	67.4	95	65.9	1	7	248	0.00	29.881 
00:45	67.6	67.6	67.6	95	66.1	1	4	270	0.00	29.859 
00:50	67.6	67.6	67.6	94	65.8	1	7	270	0.00	29.859 
00:55	67.6	67.6	67.6	94	65.8	1	3	248	0.00	29.859 
01:00	67.8	67.8	67.8	94	66.0	1	3	248	0.00	29.874 
01:05	67.8	67.8	67.8	94	66.0	1	4	248	0.00	29.874 
01:10	67.8	67.8	67.8	94	66.0	1	3	248	0.00	29.874 
01:15	67.9	67.9	67.9	94	66.1	1	3	248	0.00	29.880 
01:20	67.9	67.9	67.9	93	65.8	1	4	248	0.00	29.880 
01:25	68.1	68.1	68.1	93	66.0	1	5	248	0.00	29.880 
01:30	68.1	68.1	68.1	93	66.0	1	2	248	0.00	29.880 
01:35	68.3	68.3	68.3	92	65.9	1	3	248	0.00	29.880 
01:40	68.3	68.3	68.3	92	65.9	1	3	248	0.00	29.880 
01:45	68.4	68.4	68.4	92	66.0	1	4	248	0.00	29.879 
01:50	68.4	68.4	68.4	92	66.0	1	4	248	0.00	29.879 
01:55	68.6	68.6	68.6	92	66.2	1	3	248	0.00	29.879 
02:00	68.6	68.6	68.6	92	66.2	1	3	248	0.00	29.874 
02:05	68.8	68.8	68.8	92	66.4	2	4	248	0.00	29.874 
02:10	68.8	68.8	68.8	91	66.1	1	3	248	0.00	29.874 
02:15	68.9	68.9	68.9	91	66.2	2	5	270	0.00	29.869 
02:20	69.1	69.1	69.1	91	66.4	1	4	270	0.00	29.869 
02:25	69.1	69.1	69.1	91	66.4	1	3	248	0.00	29.869 
02:30	69.1	69.1	69.1	91	66.4	1	4	248	0.00	29.870 
02:35	69.3	69.3	69.3	90	66.2	1	3	248	0.00	29.870 
02:40	69.3	69.3	69.3	90	66.2	1	3	248	0.00	29.870 
02:45	69.4	69.4	69.4	90	66.3	2	6	270	0.00	29.864 
02:50	69.6	69.6	69.6	89	66.2	1	3	270	0.00	29.864 
02:55	69.6	69.6	69.6	89	66.2	1	3	270	0.00	29.864 
03:00	69.6	69.6	69.6	89	66.2	1	3	270	0.00	29.857 
03:05	69.6	69.6	69.6	89	66.2	1	4	270	0.00	29.857 
03:10	69.8	69.8	69.8	89	66.4	1	4	270	0.00	29.857 
03:15	69.8	69.8	69.8	89	66.4	1	2	270	0.00	29.858 
03:20	69.6	69.6	69.6	89	66.2	0	2	292	0.00	29.858 
03:25	69.6	69.6	69.6	89	66.2	1	3	292	0.00	29.858 
03:30	69.6	69.6	69.6	89	66.2	1	4	225	0.00	29.861 
03:35	69.6	69.6	69.6	89	66.2	0	2	225	0.00	29.861 
03:40	69.6	69.6	69.6	89	66.2	1	3	225	0.00	29.861 
03:45	69.6	69.6	69.6	89	66.2	1	3	225	0.00	29.862 
03:50	69.6	69.6	69.6	89	66.2	1	3	225	0.00	29.862 
03:55	69.6	69.6	69.6	89	66.2	0	3	225	0.00	29.862 
04:00	69.6	69.6	69.6	89	66.2	1	3	225	0.00	29.860 
04:05	69.6	69.6	69.6	89	66.2	1	3	225	0.00	29.860 
04:10	69.6	69.6	69.6	90	66.5	1	5	270	0.00	29.860 
04:15	69.8	69.8	69.8	90	66.7	1	4	270	0.00	29.865 
04:20	69.9	69.9	69.9	90	66.8	1	4	270	0.00	29.865 
04:25	69.9	69.9	69.9	90	66.8	1	6	270	0.00	29.865 
04:30	69.9	69.9	69.9	90	66.8	1	3	270	0.00	29.865 
04:35	69.9	69.9	69.9	90	66.8	1	5	270	0.00	29.865 
04:40	70.1	70.1	70.1	90	67.0	1	4	270	0.00	29.865 
04:45	70.1	70.1	70.1	90	67.0	2	4	248	0.00	29.865 
04:50	70.1	70.1	70.1	90	67.0	2	4	248	0.00	29.865 
04:55	70.3	70.3	70.3	90	67.2	1	4	270	0.00	29.865 
05:00	70.3	70.3	70.3	90	67.2	1	5	270	0.00	29.864 
05:05	70.3	70.3	70.3	90	67.2	1	5	292	0.00	29.864 
05:10	70.3	70.3	70.3	90	67.2	1	5	270	0.00	29.864 
05:15	70.4	70.4	70.4	90	67.3	2	5	270	0.00	29.863 
05:20	70.4	70.4	70.4	90	67.3	2	5	270	0.00	29.863 
05:25	70.6	70.6	70.6	90	67.5	2	5	270	0.00	29.863 
05:30	70.6	70.6	70.6	90	67.5	2	5	270	0.00	29.859 
05:35	70.6	70.6	70.6	90	67.5	2	5	270	0.00	29.859 
05:40	70.8	70.8	70.8	90	67.7	1	4	270	0.00	29.859 
05:45	70.8	70.8	70.8	90	67.7	1	4	270	0.00	29.861 
05:50	70.8	70.8	70.8	91	68.0	1	3	270	0.00	29.861 
05:55	70.8	70.8	70.8	91	68.0	1	3	270	0.00	29.861 
06:00	70.9	70.9	70.9	91	68.1	2	5	270	0.00	29.864 
06:05	70.9	70.9	70.9	91	68.1	2	4	270	0.00	29.864 
06:10	71.1	71.1	71.1	90	68.0	2	4	270	0.00	29.864 
06:15	71.1	71.1	71.1	90	68.0	2	6	270	0.00	29.869 
06:20	71.3	71.3	71.3	90	68.2	2	5	292	0.00	29.869 
06:25	71.3	71.3	71.3	90	68.2	2	5	292	0.00	29.869 
06:30	71.5	71.5	71.5	90	68.4	2	5	270	0.00	29.873 
06:35	71.5	71.5	71.5	89	68.1	1	4	270	0.00	29.873 
06:40	71.5	71.5	71.5	89	68.1	1	3	315	0.00	29.873 
06:45	71.5	71.5	71.5	89	68.1	1	5	270	0.00	29.876 
06:50	71.5	71.5	71.5	89	68.1	1	3	270	0.00	29.876 
06:55	71.5	71.5	71.5	89	68.1	1	3	270	0.00	29.876 
07:00	71.5	71.5	71.5	89	68.1	1	3	338	0.00	29.883 
07:05	71.5	71.5	71.5	89	68.1	2	5	270	0.00	29.883 
07:10	71.6	71.6	71.6	89	68.2	1	3	270	0.00	29.883 
07:15	71.6	71.6	71.6	88	67.8	2	4	292	0.00	29.890 
07:20	71.6	71.6	71.6	88	67.8	1	2	292	0.00	29.890 
07:25	71.8	71.8	71.8	88	68.0	1	3	315	0.00	29.890 
07:30	71.8	71.8	71.8	87	67.7	1	4	270	0.00	29.893 
07:35	71.8	71.8	71.8	87	67.7	1	3	270	0.00	29.893 
07:40	71.8	71.8	71.8	86	67.4	1	6	270	0.00	29.893 
07:45	71.8	71.8	71.8	85	67.0	1	4	292	0.00	29.907 
07:50	72.1	72.1	72.1	84	67.0	1	4	315	0.00	29.907 
07:55	72.1	72.1	72.1	83	66.6	1	5	270	0.00	29.907 
08:00	72.1	72.1	72.1	83	66.6	1	3	338	0.00	29.908 
08:05	72.1	72.1	72.1	83	66.6	2	5	315	0.00	29.908 
08:10	72.5	72.5	72.5	83	67.0	0	2	292	0.00	29.908 
08:15	72.3	72.3	72.3	82	66.5	3	6	292	0.00	29.916 
08:20	72.1	72.1	72.1	82	66.3	3	5	270	0.00	29.916 
08:25	72.0	72.0	72.0	82	66.2	2	4	315	0.00	29.916 
08:30	71.6	71.6	71.6	83	66.2	2	5	270	0.00	29.925 
08:35	71.5	71.5	71.5	83	66.1	2	5	315	0.00	29.925 
08:40	71.1	71.1	71.1	83	65.7	2	6	270	0.00	29.925 
08:45	70.9	70.9	70.9	83	65.5	2	5	270	0.00	29.929 
08:50	70.8	70.8	70.8	82	65.0	3	12	270	0.01	29.929 
08:55	70.9	70.9	70.9	81	64.8	2	7	315	0.00	29.929 
09:00	71.6	71.6	71.6	80	65.1	2	4	338	0.00	29.932 
09:05	72.0	72.0	72.0	79	65.1	2	5	270	0.00	29.932 
09:10	72.5	72.5	72.5	77	64.9	2	6	270	0.00	29.932 
09:15	72.5	72.5	72.5	76	64.5	2	5	292	0.00	29.941 
09:20	72.8	72.8	72.8	76	64.8	2	5	315	0.00	29.941 
09:25	73.3	73.3	73.3	76	65.3	1	4	315	0.00	29.941 
09:30	73.2	73.2	73.2	73	64.0	3	6	292	0.00	29.942 
09:35	73.0	73.0	73.0	73	63.8	3	6	338	0.00	29.942 
09:40	73.0	73.0	73.0	72	63.4	3	9	292	0.00	29.942 
09:45	73.0	73.0	73.0	72	63.4	3	5	315	0.00	29.947 
09:50	73.5	73.5	73.5	74	64.7	2	4	292	0.00	29.947 
09:55	73.7	73.7	73.7	73	64.5	3	6	292	0.00	29.947 
10:00	73.2	73.2	73.2	71	63.2	3	6	270	0.00	29.955 
10:05	72.8	72.8	72.8	73	63.6	3	6	292	0.00	29.955 
10:10	73.2	73.2	73.2	70	62.8	3	6	292	0.00	29.955 
10:15	73.5	73.5	73.5	71	63.5	2	8	292	0.00	29.974 
10:20	74.0	74.0	74.0	72	64.4	3	7	315	0.00	29.974 
10:25	73.5	73.5	73.5	71	63.5	2	6	292	0.00	29.974 
10:30	72.7	72.7	72.7	72	63.1	3	9	292	0.00	29.985 
10:35	72.3	72.3	72.3	74	63.5	2	7	315	0.00	29.985 
10:40	72.1	72.1	72.1	72	62.6	4	7	315	0.00	29.985 
10:45	72.0	72.0	72.0	74	63.2	2	7	315	0.00	29.989 
10:50	71.6	71.6	71.6	74	62.9	2	5	292	0.00	29.989 
10:55	71.5	71.5	71.5	75	63.1	3	11	292	0.00	29.989 
11:00	72.0	72.0	72.0	75	63.6	1	4	315	0.00	29.995 
11:05	72.5	72.5	72.5	72	62.9	3	4	315	0.00	29.995 
11:10	72.8	72.8	72.8	71	62.8	2	10	315	0.00	29.995 
11:15	73.2	73.2	73.2	72	63.6	1	5	270	0.00	29.999 
11:20	73.7	73.7	73.7	69	62.9	3	6	270	0.00	29.999 
11:25	73.7	73.7	73.7	69	62.9	2	5	292	0.00	29.999 
11:30	73.9	73.9	73.9	69	63.1	2	4	315	0.00	30.001 
11:35	74.0	74.0	74.0	68	62.8	2	5	292	0.00	30.001 
11:40	73.7	73.7	73.7	69	62.9	2	6	292	0.00	30.001 
11:45	73.5	73.5	73.5	69	62.7	3	6	292	0.00	30.007 
11:50	73.9	73.9	73.9	69	63.1	2	5	315	0.00	30.007 
11:55	73.7	73.7	73.7	69	62.9	3	7	270	0.00	30.007 
12:00	74.0	74.0	74.0	69	63.2	2	5	292	0.00	30.013 
12:05	74.4	74.4	74.4	67	62.7	1	5	315	0.00	30.013 
12:10	74.4	74.4	74.4	68	63.1	2	4	292	0.00	30.013 
12:15	74.2	74.2	74.2	68	62.9	2	5	270	0.00	30.017 
12:20	74.6	74.6	74.6	69	63.7	2	4	315	0.00	30.017 
12:25	75.1	75.1	77.0	67	63.4	1	4	292	0.00	30.017 
12:30	75.6	75.6	77.5	65	63.0	1	3	270	0.00	30.015 
12:35	75.8	75.8	77.7	65	63.2	2	4	292	0.00	30.015 
12:40	75.3	75.3	77.2	66	63.1	2	5	270	0.00	30.015 
12:45	75.8	75.8	77.7	66	63.6	2	6	315	0.00	30.019 
12:50	76.3	76.3	78.1	66	64.1	1	3	270	0.00	30.019 
12:55	76.7	76.7	78.5	62	62.7	2	7	292	0.00	30.019 
13:00	76.7	76.7	78.5	60	61.7	3	6	292	0.00	30.024 
13:05	77.0	77.0	78.8	59	61.6	1	4	292	0.00	30.024 
13:10	77.0	77.0	78.8	60	62.0	2	6	292	0.00	30.024 
13:15	76.8	76.8	78.6	63	63.2	1	5	292	0.00	30.021 
13:20	76.7	76.7	78.5	61	62.2	3	5	315	0.00	30.021 
13:25	77.0	77.0	78.8	62	63.0	1	4	315	0.00	30.021 
13:30	77.2	77.2	78.9	60	62.2	2	6	315	0.00	30.025 
13:35	77.2	77.2	79.0	62	63.2	2	5	315	0.00	30.025 
13:40	77.4	77.4	79.1	59	61.9	1	4	315	0.00	30.025 
13:45	77.4	77.4	79.1	58	61.4	2	5	315	0.00	30.019 
13:50	77.4	77.4	79.1	60	62.4	2	4	292	0.00	30.019 
13:55	77.7	77.7	79.4	60	62.7	1	3	45	0.00	30.019 
14:00	77.9	77.9	79.5	58	61.9	3	9	292	0.00	30.016 
14:05	77.9	77.9	79.6	60	62.9	2	5	292	0.00	30.016 
14:10	78.5	78.5	80.3	62	64.4	0	4	180	0.00	30.016 
14:15	78.3	78.3	79.9	59	62.8	1	2	292	0.00	30.014 
14:20	78.3	78.3	79.9	59	62.8	1	4	292	0.00	30.014 
14:25	78.3	78.3	79.8	56	61.3	2	5	292	0.00	30.014 
14:30	78.5	78.5	80.0	57	62.0	2	6	292	0.00	30.012 
14:35	78.3	78.3	79.9	58	62.3	1	5	315	0.00	30.012 
14:40	78.6	78.6	80.1	57	62.1	1	3	315	0.00	30.012 
14:45	78.8	78.8	80.3	57	62.3	2	4	315	0.00	30.011 
14:50	79.2	79.2	80.5	55	61.6	2	5	315	0.00	30.011 
14:55	78.8	78.8	80.1	55	61.2	2	5	292	0.00	30.011 
15:00	78.8	78.8	80.3	58	62.8	1	3	292	0.00	30.011 
15:05	78.8	78.8	80.1	55	61.2	1	4	22	0.00	30.011 
15:10	79.4	79.4	80.9	58	63.3	0	3	292	0.00	30.011 
15:15	79.0	79.0	80.3	55	61.4	2	5	315	0.00	30.011 
15:20	79.0	79.0	80.4	56	61.9	1	5	315	0.00	30.011 
15:25	79.2	79.2	80.6	56	62.1	2	5	292	0.00	30.011 
15:30	79.2	79.2	80.4	54	61.1	2	5	315	0.00	30.009 
15:35	79.2	79.2	80.5	55	61.6	2	6	292	0.00	30.009 
15:40	79.2	79.2	80.7	57	62.6	1	4	315	0.00	30.009 
15:45	79.6	79.6	81.0	56	62.5	2	5	270	0.00	30.009 
15:50	79.6	79.6	80.9	55	62.0	1	5	292	0.00	30.009 
15:55	79.8	79.8	81.2	56	62.7	1	3	315	0.00	30.009 
16:00	79.6	79.6	81.0	56	62.5	1	3	315	0.00	30.008 
16:05	79.8	79.8	81.1	55	62.2	1	4	292	0.00	30.008 
16:10	79.9	79.9	81.4	57	63.3	1	3	315	0.00	30.008 
16:15	79.6	79.6	80.8	54	61.5	2	5	315	0.00	30.009 
16:20	79.2	79.2	80.7	57	62.6	1	3	292	0.00	30.009 
16:25	79.6	79.6	80.9	55	62.0	1	3	292	0.00	30.009 
16:30	79.4	79.4	80.9	57	62.8	1	6	292	0.00	30.008 
16:35	79.4	79.4	80.9	58	63.3	0	2	292	0.00	30.008 
16:40	79.8	79.8	81.2	56	62.7	1	3	248	0.00	30.008 
16:45	79.8	79.8	81.1	55	62.2	2	4	315	0.00	30.005 
16:50	79.9	79.9	81.0	53	61.2	1	5	292	0.00	30.005 
16:55	80.1	80.1	81.5	56	63.0	1	2	292	0.00	30.005 
17:00	79.9	79.9	81.0	53	61.2	2	5	270	0.00	30.004 
17:05	79.9	79.9	81.0	53	61.2	2	4	338	0.00	30.004 
17:10	80.1	80.1	81.1	52	60.9	1	4	338	0.00	30.004 
17:15	80.1	80.1	81.3	54	61.9	1	4	315	0.00	30.007 
17:20	80.1	80.1	81.3	54	61.9	1	4	292	0.00	30.007 
17:25	79.9	79.9	81.1	54	61.7	2	5	315	0.00	30.007 
17:30	80.1	80.1	81.3	54	61.9	1	3	270	0.00	30.004 
17:35	80.3	80.3	81.4	53	61.6	1	4	270	0.00	30.004 
17:40	80.3	80.3	81.8	57	63.7	0	2	315	0.00	30.004 
17:45	80.3	80.3	81.6	55	62.6	0	2	315	0.00	30.008 
17:50	80.3	80.3	81.5	54	62.1	0	3	315	0.00	30.008 
17:55	80.1	80.1	81.3	54	61.9	1	3	292	0.00	30.008 
18:00	79.8	79.8	81.2	56	62.7	0	2	292	0.00	30.005 
18:05	79.6	79.6	80.9	55	62.0	0	2	315	0.00	30.005 
18:10	79.6	79.6	80.7	53	60.9	1	4	292	0.00	30.005 
18:15	79.6	79.6	80.9	55	62.0	1	3	292	0.00	30.003 
18:20	79.2	79.2	80.4	54	61.1	0	2	292	0.00	30.003 
18:25	79.0	79.0	80.5	57	62.4	0	1	292	0.00	30.003 
18:30	78.8	78.8	80.2	56	61.8	0	2	292	0.00	30.004 
18:35	78.8	78.8	80.1	54	60.7	1	3	292	0.00	30.004 
18:40	78.8	78.8	80.1	54	60.7	1	3	292	0.00	30.004 
18:45	78.8	78.8	80.1	54	60.7	0	2	292	0.00	30.008 
18:50	78.8	78.8	80.2	56	61.8	0	3	292	0.00	30.008 
18:55	78.6	78.6	79.9	54	60.5	1	3	292	0.00	30.008 
19:00	78.6	78.6	79.9	54	60.5	0	2	292	0.00	30.008 
19:05	78.6	78.6	80.0	56	61.6	0	2	292	0.00	30.008 
19:10	78.5	78.5	80.0	57	62.0	0	2	292	0.00	30.008 
19:15	78.6	78.6	80.0	55	61.1	0	2	292	0.00	30.009 
19:20	78.6	78.6	79.9	54	60.5	0	2	292	0.00	30.009 
19:25	78.5	78.5	79.8	54	60.4	1	3	292	0.00	30.009 
19:30	78.5	78.5	79.9	55	61.0	0	1	292	0.00	30.010 
19:35	78.3	78.3	79.8	56	61.3	0	1	292	0.00	30.010 
19:40	78.3	78.3	79.7	55	60.8	0	1	292	0.00	30.010 
19:45	78.1	78.1	79.5	55	60.6	0	1	292	0.00	30.013 
19:50	77.7	77.7	79.3	56	60.7	0	1	292	0.00	30.013 
19:55	77.6	77.6	79.2	57	61.1	0	1	292	0.00	30.013 
20:00	77.4	77.4	79.1	59	61.9	0	0	---	0.00	30.012 
20:05	77.2	77.2	78.9	56	60.3	0	1	292	0.00	30.012 
20:10	77.2	77.2	78.9	58	61.3	0	1	292	0.00	30.012 
20:15	77.2	77.2	78.9	58	61.3	0	1	292	0.00	30.013 
20:20	77.0	77.0	78.8	58	61.1	0	1	292	0.00	30.013 
20:25	76.8	76.8	78.6	59	61.4	0	1	292	0.00	30.013 
20:30	76.7	76.7	78.5	60	61.7	0	1	292	0.00	30.012 
20:35	76.3	76.3	78.2	61	61.8	0	1	292	0.00	30.012 
20:40	76.0	76.0	78.0	61	61.6	0	0	---	0.00	30.012 
20:45	75.8	75.8	77.8	61	61.4	0	1	292	0.00	30.014 
20:50	75.4	75.4	77.5	62	61.5	0	0	---	0.00	30.014 
20:55	75.3	75.3	77.5	62	61.4	0	0	---	0.00	30.014 
21:00	75.1	75.1	77.3	62	61.2	0	0	---	0.00	30.027 
21:05	74.9	74.9	74.9	63	61.4	0	0	---	0.00	30.027 
21:10	74.6	74.6	74.6	63	61.2	0	0	---	0.00	30.027 
21:15	74.4	74.4	74.4	64	61.4	0	0	---	0.00	30.028 
21:20	74.2	74.2	74.2	64	61.2	0	0	---	0.00	30.028 
21:25	73.9	73.9	73.9	65	61.4	0	0	---	0.00	30.028 
21:30	73.7	73.7	73.7	65	61.2	0	0	---	0.00	30.028 
21:35	73.5	73.5	73.5	66	61.4	0	0	---	0.00	30.028 
21:40	73.3	73.3	73.3	66	61.2	0	0	---	0.00	30.028 
21:45	73.0	73.0	73.0	67	61.4	0	1	292	0.00	30.030 
21:50	72.8	72.8	72.8	68	61.6	0	0	---	0.00	30.030 
21:55	72.7	72.7	72.7	68	61.5	0	0	---	0.00	30.030 
22:00	72.5	72.5	72.5	69	61.7	0	1	292	0.00	30.040 
22:05	72.3	72.3	72.3	69	61.5	0	1	292	0.00	30.040 
22:10	72.1	72.1	72.1	69	61.4	0	1	292	0.00	30.040 
22:15	72.0	72.0	72.0	70	61.7	0	2	292	0.00	30.046 
22:20	71.8	71.8	71.8	70	61.5	0	1	292	0.00	30.046 
22:25	71.8	71.8	71.8	71	61.9	0	1	292	0.00	30.046 
22:30	71.6	71.6	71.6	71	61.7	0	1	292	0.00	30.053 
22:35	71.5	71.5	71.5	71	61.6	0	1	292	0.00	30.053 
22:40	71.3	71.3	71.3	71	61.4	0	2	292	0.00	30.053 
22:45	71.1	71.1	71.1	72	61.6	0	1	292	0.00	30.061 
22:50	70.9	70.9	70.9	72	61.4	0	1	292	0.00	30.061 
22:55	70.8	70.8	70.8	73	61.7	0	2	292	0.00	30.061 
23:00	70.6	70.6	70.6	73	61.5	0	1	292	0.00	30.064 
23:05	70.4	70.4	70.4	73	61.3	0	1	292	0.00	30.064 
23:10	70.3	70.3	70.3	73	61.2	0	1	292	0.00	30.064 
23:15	70.1	70.1	70.1	74	61.4	0	1	292	0.00	30.066 
23:20	69.9	69.9	69.9	74	61.2	0	1	292	0.00	30.066 
23:25	69.8	69.8	69.8	75	61.5	0	1	292	0.00	30.066 
23:30	69.6	69.6	69.6	75	61.3	0	1	292	0.00	30.069 
23:35	69.3	69.3	69.3	76	61.4	0	0	---	0.00	30.069 
23:40	69.1	69.1	69.1	76	61.2	0	1	292	0.00	30.069 
23:45	68.9	68.9	68.9	77	61.4	0	0	---	0.00	30.064 
23:50	68.8	68.8	68.8	77	61.3	0	0	---	0.00	30.064 
23:55	68.6	68.6	68.6	77	61.1	0	0	---	0.00	30.064 

CoCoRaHS
IN-AL-39
A2 Web Hosting
Creative Commons License
GoDaddy
search engine by freefind advanced

loaded 2018-11-13 17:00:51 • last modified 2010-11-18 10:43:29
Privacy PolicyDisclaimer
• wx.awcolley.com is powered by PmWiki v.2002016 •
• all content (unless otherwise noted) © 2018 A W Colley